Time;durP1;ratioP1;P1;durP2;ratioP2;P2;SDS_P1;SDS_P2;PMS_P1;PMS_P2;Temp;Humidity;BMP_temperature;BMP_pressure;BME280_temperature;BME280_humidity;BME280_pressure;Samples;Min_cycle;Max_cycle;Signal;HPM_P1;HPM_P2
2023/09/16 00:00:32;;;;;;;18.45;14.15;;;16.60;99.90;;;;;;5030030;28;47063;-75
2023/09/16 00:02:59;;;;;;;15.68;14.07;;;16.60;99.90;;;;;;5034807;28;38681;-75
2023/09/16 00:05:25;;;;;;;19.15;14.80;;;16.60;99.90;;;;;;5031118;28;37519;-75
2023/09/16 00:07:51;;;;;;;17.27;13.43;;;16.60;99.90;;;;;;5019149;28;36104;-75
2023/09/16 00:10:17;;;;;;;18.95;14.95;;;16.50;99.90;;;;;;5015497;28;37732;-75
2023/09/16 00:12:43;;;;;;;16.00;14.30;;;16.50;99.90;;;;;;5021236;28;37379;-75
2023/09/16 00:15:10;;;;;;;17.13;13.82;;;16.50;99.90;;;;;;5024816;28;36360;-75
2023/09/16 00:17:36;;;;;;;18.10;15.27;;;16.50;99.90;;;;;;5022545;28;37714;-74
2023/09/16 00:20:15;;;;;;;15.93;14.18;;;16.50;99.90;;;;;;5023237;28;37161;-74
2023/09/16 00:22:42;;;;;;;19.48;15.80;;;16.50;99.90;;;;;;5025261;28;47121;-75
2023/09/16 00:25:09;;;;;;;17.92;14.65;;;16.50;99.90;;;;;;5040802;28;37498;-75
2023/09/16 00:27:41;;;;;;;15.88;14.02;;;16.50;99.90;;;;;;5024047;28;38572;-75
2023/09/16 00:30:10;;;;;;;;;;;16.50;99.90;;;;;;5016286;28;38072;-75
2023/09/16 00:32:36;;;;;;;16.27;14.65;;;16.50;99.90;;;;;;5033445;28;38400;-75
2023/09/16 00:35:03;;;;;;;25.45;17.33;;;16.50;99.90;;;;;;5019998;28;36837;-75
2023/09/16 00:37:30;;;;;;;18.80;16.85;;;16.50;99.90;;;;;;5036286;28;47725;-75
2023/09/16 00:39:56;;;;;;;17.15;15.27;;;16.40;99.90;;;;;;5033435;28;39443;-74
2023/09/16 00:42:22;;;;;;;17.63;15.65;;;16.40;99.90;;;;;;5020227;28;37076;-74
2023/09/16 00:44:48;;;;;;;18.42;16.38;;;16.50;99.90;;;;;;5019043;28;37190;-74
2023/09/16 00:47:14;;;;;;;18.95;15.98;;;16.50;99.90;;;;;;5032795;28;38666;-74
2023/09/16 00:49:41;;;;;;;16.77;14.98;;;16.50;99.90;;;;;;5036822;28;38041;-74
2023/09/16 00:52:07;;;;;;;16.05;14.05;;;16.50;99.90;;;;;;5038688;28;37983;-74
2023/09/16 00:54:34;;;;;;;17.73;15.82;;;16.40;99.90;;;;;;5022027;28;37339;-74
2023/09/16 00:57:02;;;;;;;16.90;15.07;;;16.40;99.90;;;;;;5018923;28;38668;-73
2023/09/16 00:59:32;;;;;;;17.23;15.30;;;16.40;99.90;;;;;;5037652;28;50157;-74
2023/09/16 01:04:29;;;;;;;18.88;15.55;;;16.30;99.90;;;;;;5040670;28;20044;-73
2023/09/16 01:06:55;;;;;;;17.27;15.48;;;16.20;99.90;;;;;;5036242;28;37500;-74
2023/09/16 01:09:22;;;;;;;18.67;16.67;;;16.20;99.90;;;;;;5030923;28;38772;-74
2023/09/16 01:11:48;;;;;;;18.05;15.73;;;16.20;99.90;;;;;;5052775;28;37988;-74
2023/09/16 01:14:15;;;;;;;17.35;15.30;;;16.10;99.90;;;;;;5029733;28;37740;-76
2023/09/16 01:16:52;;;;;;;18.42;15.90;;;16.10;99.90;;;;;;5047086;28;39567;-74
2023/09/16 01:19:27;;;;;;;18.60;15.90;;;16.00;99.90;;;;;;5034974;28;37501;-74
2023/09/16 01:21:54;;;;;;;18.20;16.02;;;16.00;99.90;;;;;;5017036;28;37199;-74
2023/09/16 01:24:24;;;;;;;20.38;17.40;;;15.90;99.90;;;;;;5019241;28;38627;-74
2023/09/16 01:26:51;;;;;;;17.90;16.10;;;15.90;99.90;;;;;;5037252;28;38701;-74
2023/09/16 01:29:21;;;;;;;19.08;16.33;;;15.90;99.90;;;;;;5037204;28;39015;-75
2023/09/16 01:31:47;;;;;;;19.60;16.55;;;15.80;99.90;;;;;;5020257;28;38294;-75
2023/09/16 01:34:35;;;;;;;17.70;15.48;;;15.80;99.90;;;;;;5033936;28;38231;-75
2023/09/16 01:37:03;;;;;;;18.17;16.08;;;15.80;99.90;;;;;;5021526;28;38196;-75
2023/09/16 01:39:31;;;;;;;19.67;16.25;;;15.70;99.90;;;;;;5038118;28;39099;-74
2023/09/16 01:42:00;;;;;;;19.25;17.00;;;15.70;99.90;;;;;;5020115;28;38081;-76
2023/09/16 01:44:26;;;;;;;18.65;16.58;;;15.70;99.90;;;;;;5036556;28;41401;-75
2023/09/16 01:46:56;;;;;;;20.25;17.30;;;15.60;99.90;;;;;;5026425;28;39753;-75
2023/09/16 01:49:22;;;;;;;21.33;16.65;;;15.60;99.90;;;;;;5020636;28;38715;-75
2023/09/16 01:51:49;;;;;;;19.25;17.15;;;15.60;99.90;;;;;;5019015;28;38118;-75
2023/09/16 01:54:15;;;;;;;19.33;16.20;;;15.50;99.90;;;;;;5035144;28;37126;-75
2023/09/16 01:56:44;;;;;;;20.67;16.33;;;15.50;99.90;;;;;;5021433;28;39479;-74
2023/09/16 01:59:10;;;;;;;18.92;16.92;;;15.50;99.90;;;;;;5037899;28;37987;-75
2023/09/16 02:01:37;;;;;;;18.23;16.33;;;15.40;99.90;;;;;;5022917;28;37784;-74
2023/09/16 02:04:03;;;;;;;20.60;17.35;;;15.40;99.90;;;;;;5035392;28;36484;-75
2023/09/16 02:06:29;;;;;;;17.90;15.98;;;15.40;99.90;;;;;;5035397;28;37510;-75
2023/09/16 02:08:58;;;;;;;17.42;15.63;;;15.30;99.90;;;;;;5060166;28;37630;-76
2023/09/16 02:11:24;;;;;;;20.90;15.98;;;15.30;99.90;;;;;;5033134;28;38513;-75
2023/09/16 02:13:50;;;;;;;19.27;16.75;;;15.30;99.90;;;;;;5046405;28;37209;-75
2023/09/16 02:16:16;;;;;;;19.17;16.98;;;15.30;99.90;;;;;;5048934;28;38252;-75
2023/09/16 02:18:42;;;;;;;17.58;15.65;;;15.30;99.90;;;;;;5021295;28;38773;-75
2023/09/16 02:21:08;;;;;;;18.80;16.60;;;15.20;99.90;;;;;;5035191;28;38743;-75
2023/09/16 02:23:34;;;;;;;18.38;16.33;;;15.20;99.90;;;;;;5036609;28;37799;-75
2023/09/16 02:26:01;;;;;;;22.13;17.38;;;15.20;99.90;;;;;;5035073;28;37635;-75
2023/09/16 02:28:28;;;;;;;22.30;17.98;;;15.20;99.90;;;;;;5031239;28;48579;-75
2023/09/16 02:30:54;;;;;;;21.75;17.75;;;15.20;99.90;;;;;;5028045;28;37092;-75
2023/09/16 02:33:20;;;;;;;20.77;18.50;;;15.10;99.90;;;;;;5034056;28;37571;-76
2023/09/16 02:35:47;;;;;;;19.88;17.83;;;15.10;99.90;;;;;;5036294;28;38905;-76
2023/09/16 02:38:13;;;;;;;20.45;18.25;;;15.10;99.90;;;;;;5018032;28;37251;-76
2023/09/16 02:40:40;;;;;;;20.65;18.35;;;15.10;99.90;;;;;;5034986;28;37940;-76
2023/09/16 02:43:09;;;;;;;22.00;18.55;;;15.10;99.90;;;;;;5039241;28;37847;-76
2023/09/16 02:45:40;;;;;;;21.98;17.88;;;15.10;99.90;;;;;;5036140;28;38785;-76
2023/09/16 02:48:06;;;;;;;20.83;18.67;;;15.00;99.90;;;;;;5037774;28;38182;-76
2023/09/16 02:50:37;;;;;;;20.27;17.67;;;15.00;99.90;;;;;;5021211;28;36949;-76
2023/09/16 02:53:03;;;;;;;22.83;19.52;;;15.00;99.90;;;;;;5033949;28;37090;-75
2023/09/16 02:55:33;;;;;;;21.77;18.65;;;15.00;99.90;;;;;;5042119;28;38634;-76
2023/09/16 02:58:00;;;;;;;21.55;19.23;;;15.00;99.90;;;;;;5033761;28;37890;-75
2023/09/16 03:00:26;;;;;;;21.17;18.60;;;14.90;99.90;;;;;;5022018;28;38349;-76
2023/09/16 03:02:52;;;;;;;20.70;18.55;;;14.90;99.90;;;;;;5023589;28;36389;-76
2023/09/16 03:05:18;;;;;;;22.83;18.83;;;14.90;99.90;;;;;;5020505;28;37789;-75
2023/09/16 03:07:44;;;;;;;22.60;19.52;;;14.90;99.90;;;;;;5037196;28;37853;-75
2023/09/16 03:10:11;;;;;;;20.92;18.55;;;14.80;99.90;;;;;;5041146;28;38132;-75
2023/09/16 03:12:37;;;;;;;20.48;18.27;;;14.80;99.90;;;;;;5025311;28;37040;-77
2023/09/16 03:15:04;;;;;;;23.23;19.92;;;14.90;99.90;;;;;;5041163;28;38971;-75
2023/09/16 03:17:30;;;;;;;22.70;20.25;;;14.80;99.90;;;;;;5039335;28;48846;-75
2023/09/16 03:19:56;;;;;;;23.00;19.95;;;14.80;99.90;;;;;;5024205;28;36976;-76
2023/09/16 03:22:22;;;;;;;23.98;19.83;;;14.80;99.90;;;;;;5024178;28;37797;-76
2023/09/16 03:24:49;;;;;;;21.90;18.95;;;14.80;99.90;;;;;;5040530;28;39505;-77
2023/09/16 03:27:15;;;;;;;25.95;18.50;;;14.70;99.90;;;;;;5024197;28;39339;-76
2023/09/16 03:29:41;;;;;;;22.48;19.67;;;14.70;99.90;;;;;;5041464;28;38271;-76
2023/09/16 03:32:07;;;;;;;21.80;19.48;;;14.70;99.90;;;;;;5021948;28;38099;-76
2023/09/16 03:34:33;;;;;;;22.88;20.48;;;14.70;99.90;;;;;;5041681;28;39616;-76
2023/09/16 03:36:59;;;;;;;21.45;19.13;;;14.60;99.90;;;;;;5019683;28;37512;-76
2023/09/16 03:39:25;;;;;;;25.15;19.83;;;14.60;99.90;;;;;;5038618;28;38632;-76
2023/09/16 03:41:52;;;;;;;24.80;20.90;;;14.60;99.90;;;;;;5036454;28;37240;-76
2023/09/16 03:44:18;;;;;;;21.65;19.35;;;14.60;99.90;;;;;;5023088;28;38863;-76
2023/09/16 03:46:44;;;;;;;21.75;19.42;;;14.50;99.90;;;;;;5048610;28;38472;-76
2023/09/16 03:49:10;;;;;;;21.35;19.15;;;14.50;99.90;;;;;;5036882;28;37873;-76
2023/09/16 03:51:39;;;;;;;22.20;19.48;;;14.50;99.90;;;;;;5028138;28;36856;-76
2023/09/16 03:54:06;;;;;;;24.30;19.67;;;14.50;99.90;;;;;;5021419;28;37697;-76
2023/09/16 03:56:35;;;;;;;23.88;20.77;;;14.50;99.90;;;;;;5037436;28;37985;-76
2023/09/16 03:59:01;;;;;;;25.35;22.42;;;14.40;99.90;;;;;;5020858;28;37241;-76
2023/09/16 04:01:27;;;;;;;23.77;20.10;;;14.40;99.90;;;;;;5040067;28;48434;-76
2023/09/16 04:03:55;;;;;;;22.63;20.23;;;14.40;99.90;;;;;;5053635;28;39729;-76
2023/09/16 04:06:21;;;;;;;25.23;20.42;;;14.40;99.90;;;;;;5020411;28;38864;-76
2023/09/16 04:08:47;;;;;;;23.20;20.45;;;14.40;99.90;;;;;;5022586;28;36839;-76
2023/09/16 04:11:13;;;;;;;23.60;20.27;;;14.40;99.90;;;;;;5058839;28;37136;-77
2023/09/16 04:13:39;;;;;;;28.40;22.58;;;14.40;99.90;;;;;;5035158;28;39149;-76
2023/09/16 04:16:05;;;;;;;22.80;20.42;;;14.30;99.90;;;;;;5035646;28;37810;-76
2023/09/16 04:18:32;;;;;;;25.08;21.08;;;14.30;99.90;;;;;;5029215;28;37276;-76
2023/09/16 04:20:58;;;;;;;25.13;22.05;;;14.30;99.90;;;;;;5029435;28;37009;-76
2023/09/16 04:23:24;;;;;;;24.48;21.90;;;14.30;99.90;;;;;;5030967;28;37798;-76
2023/09/16 04:25:58;;;;;;;25.88;22.75;;;14.30;99.90;;;;;;5020716;28;37329;-76
2023/09/16 04:28:24;;;;;;;24.85;22.05;;;14.20;99.90;;;;;;5056673;28;38063;-76
2023/09/16 04:30:51;;;;;;;25.15;21.65;;;14.20;99.90;;;;;;5023300;28;37686;-76
2023/09/16 04:33:18;;;;;;;27.10;23.40;;;14.20;99.90;;;;;;5037407;28;39868;-75
2023/09/16 04:35:45;;;;;;;25.75;22.90;;;14.20;99.90;;;;;;5021611;28;37558;-74
2023/09/16 04:38:12;;;;;;;24.40;21.65;;;14.20;99.90;;;;;;5037292;28;38328;-75
2023/09/16 04:40:40;;;;;;;24.63;21.95;;;14.10;99.90;;;;;;5021492;28;37738;-76
2023/09/16 04:43:06;;;;;;;25.17;22.15;;;14.10;99.90;;;;;;5025984;28;39601;-75
2023/09/16 04:45:32;;;;;;;26.15;22.45;;;14.10;99.90;;;;;;5046687;28;38544;-74
2023/09/16 04:48:00;;;;;;;24.98;22.35;;;14.00;99.90;;;;;;5029997;28;37680;-73
2023/09/16 04:50:29;;;;;;;24.75;21.98;;;14.00;99.90;;;;;;5042636;28;37946;-75
2023/09/16 04:52:56;;;;;;;23.35;20.85;;;14.00;99.90;;;;;;5046915;28;40580;-75
2023/09/16 04:55:22;;;;;;;27.73;23.85;;;14.00;99.90;;;;;;5044754;28;39110;-75
2023/09/16 04:57:48;;;;;;;25.63;22.88;;;14.00;99.90;;;;;;5023220;28;37767;-78
2023/09/16 05:00:14;;;;;;;26.55;22.77;;;14.00;99.90;;;;;;5040708;28;38025;-77
2023/09/16 05:02:40;;;;;;;28.05;24.80;;;14.00;99.90;;;;;;5037282;28;38803;-76
2023/09/16 05:05:06;;;;;;;28.08;23.95;;;14.00;99.90;;;;;;5027940;28;38335;-76
2023/09/16 05:07:33;;;;;;;28.75;24.48;;;14.00;99.90;;;;;;5036071;28;38940;-75
2023/09/16 05:09:59;;;;;;;30.95;25.52;;;14.00;99.90;;;;;;5042348;28;36651;-76
2023/09/16 05:12:25;;;;;;;30.98;25.33;;;13.90;99.90;;;;;;5035335;28;38407;-75
2023/09/16 05:14:51;;;;;;;29.20;24.05;;;13.90;99.90;;;;;;5018702;28;38287;-75
2023/09/16 05:17:17;;;;;;;29.63;24.92;;;13.90;99.90;;;;;;5027440;28;36821;-76
2023/09/16 05:19:44;;;;;;;30.25;25.17;;;13.90;99.90;;;;;;5049781;28;37629;-76
2023/09/16 05:22:10;;;;;;;28.08;25.08;;;13.90;99.90;;;;;;5050877;28;38602;-75
2023/09/16 05:24:36;;;;;;;29.60;24.60;;;13.90;99.90;;;;;;5039132;28;37130;-75
2023/09/16 05:27:02;;;;;;;27.90;24.90;;;13.90;99.90;;;;;;5022570;28;39518;-75
2023/09/16 05:29:28;;;;;;;28.02;24.75;;;13.90;99.90;;;;;;5021533;28;36276;-75
2023/09/16 05:31:54;;;;;;;29.00;25.58;;;13.90;99.90;;;;;;5037349;28;40048;-75
2023/09/16 05:34:20;;;;;;;28.98;24.63;;;13.90;99.90;;;;;;5019283;28;40167;-76
2023/09/16 05:36:46;;;;;;;28.65;25.17;;;13.90;99.90;;;;;;5018533;28;38525;-76
2023/09/16 05:39:12;;;;;;;28.60;25.45;;;13.90;99.90;;;;;;5034984;28;37455;-76
2023/09/16 05:41:38;;;;;;;28.52;25.38;;;13.90;99.90;;;;;;5020352;28;38982;-75
2023/09/16 05:44:05;;;;;;;29.17;25.25;;;13.90;99.90;;;;;;5032270;28;37912;-75
2023/09/16 05:46:31;;;;;;;28.33;24.80;;;13.90;99.90;;;;;;5028772;28;36946;-76
2023/09/16 05:49:06;;;;;;;30.55;26.00;;;13.90;99.90;;;;;;5040112;28;38287;-76
2023/09/16 05:51:33;;;;;;;28.55;25.50;;;13.90;99.90;;;;;;5040127;28;48711;-76
2023/09/16 05:53:59;;;;;;;28.75;25.63;;;14.00;99.90;;;;;;5032388;28;37405;-75
2023/09/16 05:56:26;;;;;;;30.00;25.55;;;13.90;99.90;;;;;;5028856;28;37255;-75
2023/09/16 05:58:52;;;;;;;27.98;25.02;;;13.90;99.90;;;;;;5022028;28;37450;-77
2023/09/16 06:01:18;;;;;;;28.67;25.58;;;14.00;99.90;;;;;;5039509;28;38811;-75
2023/09/16 06:03:44;;;;;;;27.85;24.85;;;14.00;99.90;;;;;;5028535;28;37237;-75
2023/09/16 06:06:11;;;;;;;31.80;26.63;;;14.00;99.90;;;;;;5028920;28;38323;-75
2023/09/16 06:08:37;;;;;;;28.40;25.33;;;14.10;99.90;;;;;;5030911;28;36562;-75
2023/09/16 06:11:04;;;;;;;29.58;26.45;;;14.10;99.90;;;;;;5043198;28;38660;-74
2023/09/16 06:13:31;;;;;;;31.58;28.13;;;14.10;99.90;;;;;;5037100;28;37611;-73
2023/09/16 06:15:57;;;;;;;31.55;27.85;;;14.20;99.90;;;;;;5028186;28;36885;-78
2023/09/16 06:18:23;;;;;;;31.98;27.65;;;14.20;99.90;;;;;;5019607;28;36045;-76
2023/09/16 06:20:49;;;;;;;17.33;15.05;;;14.20;99.90;;;;;;5029815;28;37621;-76
2023/09/16 06:23:16;;;;;;;39.38;32.45;;;14.40;99.90;;;;;;5036563;28;38553;-78
2023/09/16 06:25:42;;;;;;;44.30;37.92;;;14.80;99.90;;;;;;5039248;28;37814;-76
2023/09/16 06:28:08;;;;;;;41.88;36.05;;;14.90;99.90;;;;;;5045771;28;36767;-76
2023/09/16 06:30:34;;;;;;;36.67;32.72;;;14.90;99.90;;;;;;5036887;28;38639;-75
2023/09/16 06:33:00;;;;;;;44.72;37.55;;;14.90;99.90;;;;;;5025579;28;37584;-75
2023/09/16 06:35:26;;;;;;;39.03;34.13;;;14.90;99.90;;;;;;5027356;28;37222;-75
2023/09/16 06:37:53;;;;;;;45.60;38.25;;;14.90;99.90;;;;;;5053351;28;36148;-75
2023/09/16 06:40:19;;;;;;;41.67;36.15;;;15.00;99.90;;;;;;5032891;28;38457;-76
2023/09/16 06:42:45;;;;;;;40.40;35.72;;;15.00;99.90;;;;;;5060907;28;38357;-75
2023/09/16 06:45:12;;;;;;;40.80;35.15;;;15.10;99.90;;;;;;5061046;28;38055;-75
2023/09/16 06:47:38;;;;;;;41.00;35.47;;;15.10;99.90;;;;;;5042647;28;37645;-75
2023/09/16 06:50:06;;;;;;;38.38;34.15;;;15.20;99.90;;;;;;5063166;28;40044;-75
2023/09/16 06:52:32;;;;;;;43.42;37.30;;;15.30;99.90;;;;;;5050439;28;39449;-76
2023/09/16 06:54:58;;;;;;;45.58;36.03;;;15.40;99.90;;;;;;5031719;28;38190;-75
2023/09/16 06:57:24;;;;;;;42.17;37.47;;;15.40;99.90;;;;;;5040333;28;37303;-75
2023/09/16 06:59:50;;;;;;;43.65;38.55;;;15.50;99.90;;;;;;5035864;28;37828;-75
2023/09/16 07:02:17;;;;;;;45.13;37.38;;;15.60;99.90;;;;;;5034546;28;37319;-76
2023/09/16 07:04:45;;;;;;;37.58;33.50;;;15.70;99.90;;;;;;5053199;28;39135;-76
2023/09/16 07:07:12;;;;;;;43.90;37.40;;;15.70;99.90;;;;;;5053510;28;37922;-74
2023/09/16 07:09:39;;;;;;;43.75;38.30;;;15.80;99.90;;;;;;5051263;28;38911;-75
2023/09/16 07:12:06;;;;;;;39.88;34.08;;;15.90;99.90;;;;;;5048414;28;38959;-75
2023/09/16 07:14:39;;;;;;;38.35;33.88;;;15.90;99.90;;;;;;5025480;28;37152;-75
2023/09/16 07:17:05;;;;;;;35.47;31.75;;;16.00;99.90;;;;;;5050105;28;37014;-75
2023/09/16 07:19:33;;;;;;;39.17;33.97;;;16.10;99.90;;;;;;5035425;28;38530;-73
2023/09/16 07:22:00;;;;;;;41.33;33.60;;;16.20;99.90;;;;;;5053285;28;38229;-73
2023/09/16 07:24:26;;;;;;;39.00;33.55;;;16.30;99.90;;;;;;5048636;28;38063;-74
2023/09/16 07:26:53;;;;;;;35.70;29.77;;;16.40;99.90;;;;;;5048882;28;38289;-73
2023/09/16 07:29:20;;;;;;;37.85;31.10;;;16.50;99.90;;;;;;5030728;28;39425;-73
2023/09/16 07:31:46;;;;;;;31.23;27.88;;;16.60;99.90;;;;;;5038242;28;37697;-73
2023/09/16 07:34:12;;;;;;;30.02;26.90;;;16.70;99.90;;;;;;5033965;28;40094;-74
2023/09/16 07:36:38;;;;;;;30.45;26.40;;;16.80;99.90;;;;;;5039467;28;37056;-73
2023/09/16 07:39:05;;;;;;;28.27;22.63;;;16.90;99.90;;;;;;5029828;28;37595;-73
2023/09/16 07:41:31;;;;;;;31.70;26.08;;;16.90;99.90;;;;;;5027276;28;37831;-73
2023/09/16 07:43:57;;;;;;;28.95;25.42;;;16.90;99.90;;;;;;5037484;28;36829;-73
2023/09/16 07:46:23;;;;;;;32.60;26.75;;;17.00;99.90;;;;;;5048975;28;37622;-73
2023/09/16 07:48:49;;;;;;;26.10;23.17;;;17.00;99.90;;;;;;5050158;28;39153;-73
2023/09/16 07:51:16;;;;;;;31.42;26.55;;;17.10;99.90;;;;;;5035196;28;38291;-74
2023/09/16 07:53:42;;;;;;;29.13;23.85;;;17.20;99.90;;;;;;5032394;28;37829;-73
2023/09/16 07:56:08;;;;;;;26.77;23.88;;;17.40;99.90;;;;;;5054507;28;38139;-74
2023/09/16 07:58:34;;;;;;;26.73;23.88;;;17.50;99.90;;;;;;5027873;28;39054;-73
2023/09/16 08:01:00;;;;;;;24.45;21.90;;;17.60;99.90;;;;;;5033847;28;35862;-74
2023/09/16 08:03:27;;;;;;;27.00;23.50;;;17.70;99.90;;;;;;5034188;28;45776;-72
2023/09/16 08:05:53;;;;;;;25.13;22.38;;;17.80;99.90;;;;;;5046869;28;36676;-73
2023/09/16 08:08:19;;;;;;;24.33;21.55;;;17.80;99.90;;;;;;5050088;28;38425;-72
2023/09/16 08:10:49;;;;;;;27.65;21.40;;;18.00;99.90;;;;;;5051319;28;38200;-72
2023/09/16 08:13:17;;;;;;;25.08;20.70;;;18.10;99.90;;;;;;5047084;28;38342;-72
2023/09/16 08:15:43;;;;;;;25.45;19.95;;;18.30;99.90;;;;;;5054020;28;36610;-73
2023/09/16 08:18:09;;;;;;;25.75;20.17;;;18.40;99.90;;;;;;5042866;28;40063;-72
2023/09/16 08:20:35;;;;;;;22.08;19.52;;;18.70;99.90;;;;;;5039158;28;37590;-72
2023/09/16 08:23:01;;;;;;;22.10;18.40;;;18.90;99.90;;;;;;5052256;28;38391;-72
2023/09/16 08:25:27;;;;;;;22.70;18.92;;;19.10;99.90;;;;;;5031502;28;48379;-72
2023/09/16 08:27:54;;;;;;;25.75;18.42;;;19.40;99.90;;;;;;5047791;28;39902;-72
2023/09/16 08:30:21;;;;;;;22.17;18.73;;;19.70;99.90;;;;;;5044703;28;39016;-72
2023/09/16 08:32:48;;;;;;;21.52;18.05;;;19.90;99.90;;;;;;5043917;28;37968;-73
2023/09/16 08:35:14;;;;;;;21.98;17.40;;;20.10;99.90;;;;;;5043747;28;37249;-73
2023/09/16 08:37:40;;;;;;;21.58;18.15;;;20.30;99.90;;;;;;5044029;28;38606;-73
2023/09/16 08:40:07;;;;;;;21.45;16.42;;;20.30;99.90;;;;;;5046946;28;38611;-73
2023/09/16 08:43:06;;;;;;;16.20;13.52;;;20.40;99.90;;;;;;5038779;28;38010;-73
2023/09/16 08:45:35;;;;;;;18.58;15.55;;;20.40;99.90;;;;;;5036568;28;48503;-74
2023/09/16 08:48:05;;;;;;;18.20;15.35;;;20.60;99.90;;;;;;5026431;28;38918;-73
2023/09/16 08:50:32;;;;;;;17.20;14.50;;;20.80;99.90;;;;;;5042403;28;39038;-76
2023/09/16 08:53:03;;;;;;;20.17;14.30;;;21.10;99.90;;;;;;5040460;28;37965;-75
2023/09/16 08:55:32;;;;;;;13.43;11.18;;;21.30;99.90;;;;;;5043174;28;48906;-76
2023/09/16 08:58:05;;;;;;;13.25;11.55;;;21.60;99.90;;;;;;5043753;28;38623;-75
2023/09/16 09:00:31;;;;;;;14.07;11.63;;;21.90;99.90;;;;;;5029617;28;47482;-76
2023/09/16 09:02:57;;;;;;;14.88;10.50;;;22.20;99.90;;;;;;5048392;28;37568;-76
2023/09/16 09:05:27;;;;;;;12.70;10.88;;;22.30;86.80;;;;;;5054169;28;37700;-76
2023/09/16 09:07:53;;;;;;;11.65;10.40;;;22.40;74.70;;;;;;5039718;28;37857;-76
2023/09/16 09:10:20;;;;;;;9.38;8.07;;;22.60;95.20;;;;;;5027727;28;37163;-77
2023/09/16 09:12:46;;;;;;;10.43;7.65;;;22.80;94.50;;;;;;5046386;28;37861;-76
2023/09/16 09:15:15;;;;;;;10.25;6.80;;;22.90;82.10;;;;;;5032008;28;35988;-78
2023/09/16 09:17:50;;;;;;;8.90;6.88;;;22.90;58.00;;;;;;5057612;28;39508;-75
2023/09/16 09:20:22;;;;;;;9.27;6.47;;;23.00;58.70;;;;;;5047672;28;38643;-75
2023/09/16 09:22:50;;;;;;;6.07;5.47;;;23.10;49.10;;;;;;5021788;28;37142;-76
2023/09/16 09:25:23;;;;;;;7.15;5.75;;;23.30;74.90;;;;;;5045105;28;36994;-75
2023/09/16 09:27:50;;;;;;;9.35;5.85;;;23.40;79.70;;;;;;5046035;28;37688;-75
2023/09/16 09:30:24;;;;;;;6.80;5.15;;;23.40;55.60;;;;;;5039634;28;38793;-76
2023/09/16 09:32:50;;;;;;;7.32;4.93;;;23.40;57.50;;;;;;5050089;28;37831;-76
2023/09/16 09:35:20;;;;;;;11.32;5.00;;;23.30;24.60;;;;;;5040050;28;36075;-74
2023/09/16 09:37:47;;;;;;;6.88;4.38;;;23.40;14.20;;;;;;5056334;28;38284;-76
2023/09/16 09:40:15;;;;;;;6.68;5.38;;;23.40;59.10;;;;;;5053012;28;38640;-76
2023/09/16 09:42:43;;;;;;;6.70;5.25;;;23.40;62.00;;;;;;5055025;28;37885;-76
2023/09/16 09:45:10;;;;;;;6.10;4.53;;;23.50;46.20;;;;;;5054138;28;36956;-76
2023/09/16 09:47:37;;;;;;;6.40;4.55;;;23.60;43.80;;;;;;5037721;28;37743;-77
2023/09/16 09:50:05;;;;;;;6.93;4.93;;;23.60;23.70;;;;;;5034030;28;37682;-76
2023/09/16 09:52:31;;;;;;;7.00;4.80;;;23.60;32.90;;;;;;5042720;28;48857;-77
2023/09/16 09:54:58;;;;;;;6.18;4.57;;;23.90;41.70;;;;;;5034647;28;36917;-77
2023/09/16 09:57:26;;;;;;;9.50;5.75;;;24.00;20.70;;;;;;5042977;28;37817;-77
2023/09/16 09:59:52;;;;;;;6.15;4.78;;;24.20;1.00;;;;;;5030447;28;38897;-75
2023/09/16 10:02:22;;;;;;;5.85;4.50;;;24.20;9.20;;;;;;5033316;28;37197;-76
2023/09/16 10:04:48;;;;;;;7.38;5.18;;;24.20;37.10;;;;;;5034484;28;37718;-75
2023/09/16 10:07:14;;;;;;;7.40;4.90;;;24.10;1.00;;;;;;5057787;28;38649;-75
2023/09/16 10:09:43;;;;;;;9.57;5.40;;;24.00;1.00;;;;;;5023528;28;38668;-76
2023/09/16 10:12:10;;;;;;;7.18;4.80;;;24.10;8.50;;;;;;5034487;28;38370;-75
2023/09/16 10:14:36;;;;;;;5.57;4.75;;;24.30;17.20;;;;;;5050240;28;37221;-75
2023/09/16 10:17:02;;;;;;;6.07;4.70;;;24.40;25.80;;;;;;5053284;28;38912;-74
2023/09/16 10:19:28;;;;;;;6.30;5.03;;;24.50;39.20;;;;;;5045579;28;39498;-74
2023/09/16 10:21:55;;;;;;;7.70;5.03;;;24.70;21.70;;;;;;5045250;28;38793;-73
2023/09/16 10:24:21;;;;;;;7.68;4.47;;;24.70;20.70;;;;;;5025332;28;36192;-73
2023/09/16 10:26:48;;;;;;;8.13;4.50;;;24.80;8.20;;;;;;5036925;28;38756;-75
2023/09/16 10:29:16;;;;;;;5.65;4.07;;;24.90;1.00;;;;;;5047737;28;39143;-76
2023/09/16 10:31:43;;;;;;;5.97;3.90;;;25.10;1.00;;;;;;5022990;28;37901;-76
2023/09/16 10:34:10;;;;;;;5.05;4.32;;;25.20;1.00;;;;;;5024171;28;37475;-75
2023/09/16 10:36:36;;;;;;;6.78;4.85;;;25.30;1.00;;;;;;5023102;28;38672;-73
2023/09/16 10:39:03;;;;;;;4.88;4.10;;;25.30;1.00;;;;;;5041372;28;39087;-74
2023/09/16 10:41:30;;;;;;;5.22;4.72;;;25.30;1.00;;;;;;5037598;28;38810;-75
2023/09/16 10:43:58;;;;;;;6.97;4.15;;;25.50;1.00;;;;;;5048654;28;36880;-74
2023/09/16 10:46:24;;;;;;;7.00;4.10;;;25.80;9.20;;;;;;5031278;28;37723;-75
2023/09/16 10:48:51;;;;;;;6.53;5.35;;;25.90;27.30;;;;;;5032129;28;37421;-74
2023/09/16 10:51:23;;;;;;;6.47;4.82;;;25.80;1.00;;;;;;5040100;28;38224;-74
2023/09/16 10:53:55;;;;;;;5.18;4.65;;;25.70;1.00;;;;;;5030494;28;37001;-74
2023/09/16 10:56:43;;;;;;;6.93;5.85;;;25.80;1.00;;;;;;5029759;28;39175;-75
2023/09/16 10:59:13;;;;;;;7.75;4.38;;;26.00;1.00;;;;;;5036569;28;38790;-76
2023/09/16 11:01:57;;;;;;;5.80;4.07;;;25.90;1.00;;;;;;5048479;28;38778;-75
2023/09/16 11:04:24;;;;;;;5.75;4.10;;;25.80;1.00;;;;;;5029139;28;37005;-75
2023/09/16 11:06:53;;;;;;;5.13;3.88;;;25.70;1.00;;;;;;5040407;28;38578;-76
2023/09/16 11:09:24;;;;;;;6.78;4.38;;;25.90;1.00;;;;;;5039716;28;39695;-76
2023/09/16 11:11:51;;;;;;;4.77;3.83;;;26.00;1.00;;;;;;5022724;28;36850;-75
2023/09/16 11:14:21;;;;;;;7.30;4.22;;;26.20;1.00;;;;;;5031052;28;36876;-75
2023/09/16 11:16:58;;;;;;;3.75;3.20;;;26.40;1.00;;;;;;5034148;28;40444;-75
2023/09/16 11:19:25;;;;;;;6.82;3.92;;;26.70;1.00;;;;;;5036264;28;38210;-75
2023/09/16 11:21:52;;;;;;;8.15;3.88;;;26.70;1.00;;;;;;5037544;28;38780;-74
2023/09/16 11:24:18;;;;;;;4.45;3.40;;;26.70;1.00;;;;;;5041928;28;37240;-73
2023/09/16 11:26:51;;;;;;;3.88;3.22;;;26.70;1.00;;;;;;5020615;28;38841;-74
2023/09/16 11:29:17;;;;;;;4.40;2.72;;;26.70;1.00;;;;;;5024950;28;38317;-74
2023/09/16 11:31:44;;;;;;;3.53;2.65;;;26.90;1.00;;;;;;5040279;28;36546;-74
2023/09/16 11:34:21;;;;;;;4.25;2.75;;;26.80;1.00;;;;;;5022161;28;34564;-74
2023/09/16 11:36:50;;;;;;;3.50;2.35;;;26.90;1.00;;;;;;5021965;28;38175;-76
2023/09/16 11:39:18;;;;;;;2.47;1.95;;;26.80;1.00;;;;;;5025302;28;38101;-76
2023/09/16 11:41:46;;;;;;;5.40;2.53;;;26.70;1.00;;;;;;5028281;28;36692;-77
2023/09/16 11:44:13;;;;;;;3.45;2.15;;;26.60;1.00;;;;;;5045494;28;37822;-76
2023/09/16 11:46:40;;;;;;;2.80;2.22;;;26.40;99.90;;;;;;5052131;28;38974;-76
2023/09/16 11:49:07;;;;;;;3.30;2.05;;;26.30;1.00;;;;;;5035593;28;37681;-76
2023/09/16 11:51:36;;;;;;;3.35;2.22;;;26.20;1.00;;;;;;5034100;28;39924;-76
2023/09/16 11:54:03;;;;;;;2.30;1.77;;;26.30;1.00;;;;;;5042233;28;36317;-77
2023/09/16 11:56:34;;;;;;;2.72;2.10;;;26.20;1.00;;;;;;5045604;28;38198;-76
2023/09/16 11:59:03;;;;;;;2.90;2.10;;;26.10;1.00;;;;;;5041805;28;37609;-75
2023/09/16 12:01:34;;;;;;;3.55;2.00;;;26.10;1.00;;;;;;5052046;28;48455;-75
2023/09/16 12:04:04;;;;;;;3.13;2.17;;;26.20;1.00;;;;;;5037030;28;37547;-76
2023/09/16 12:06:31;;;;;;;3.13;2.38;;;26.10;1.00;;;;;;5036055;28;47118;-76
2023/09/16 12:08:59;;;;;;;4.57;2.45;;;26.00;1.00;;;;;;5029691;28;37963;-77
2023/09/16 12:11:26;;;;;;;2.55;2.35;;;25.90;1.00;;;;;;5039681;28;37344;-76
2023/09/16 12:13:54;;;;;;;3.67;2.40;;;26.00;1.00;;;;;;5041256;28;37273;-76
2023/09/16 12:16:21;;;;;;;3.33;2.00;;;26.00;1.00;;;;;;5043783;28;37688;-76
2023/09/16 12:18:47;;;;;;;3.13;2.50;;;26.10;1.00;;;;;;5022580;28;38583;-75
2023/09/16 12:21:13;;;;;;;6.30;2.83;;;26.10;1.00;;;;;;5024877;28;35467;-75
2023/09/16 12:23:45;;;;;;;2.63;1.90;;;26.10;1.00;;;;;;5045621;28;38764;-76
2023/09/16 12:26:12;;;;;;;3.00;2.30;;;26.10;1.00;;;;;;5018730;28;35924;-77
2023/09/16 12:28:39;;;;;;;4.80;2.90;;;26.30;1.00;;;;;;5030266;28;37123;-75
2023/09/16 12:31:10;;;;;;;2.85;2.45;;;26.40;1.00;;;;;;5057607;28;37123;-75
2023/09/16 12:33:47;;;;;;;2.50;2.30;;;26.40;1.00;;;;;;5037726;28;35993;-77
2023/09/16 12:36:34;;;;;;;4.47;2.70;;;26.50;1.00;;;;;;5020256;28;37929;-74
2023/09/16 12:39:01;;;;;;;2.95;2.20;;;26.50;1.00;;;;;;5056541;28;37316;-74